sensor_id;sensor_type;location;lat;lon;timestamp;pressure;altitude;pressure_sealevel;temperature;humidity
76046;BME280;64741;41.730;44.788;2023-12-07T00:01:56;991.5;;;23;44.4
76046;BME280;64741;41.730;44.788;2023-12-07T00:07:04;991.5;;;23;44.4
76046;BME280;64741;41.730;44.788;2023-12-07T00:12:04;991.5;;;23;44.3
76046;BME280;64741;41.730;44.788;2023-12-07T00:16:56;991.4;;;23;44.4
76046;BME280;64741;41.730;44.788;2023-12-07T00:22:06;991.3;;;23;44.4
76046;BME280;64741;41.730;44.788;2023-12-07T00:26:32;991.3;;;23;44.3
76046;BME280;64741;41.730;44.788;2023-12-07T00:31:56;991.3;;;23;44.3
76046;BME280;64741;41.730;44.788;2023-12-07T00:37:04;991.3;;;23;44.2
76046;BME280;64741;41.730;44.788;2023-12-07T00:42:04;991.3;;;23;44.1
76046;BME280;64741;41.730;44.788;2023-12-07T00:46:56;991.4;;;23;44.1
76046;BME280;64741;41.730;44.788;2023-12-07T00:51:52;991.4;;;23;44.2
76046;BME280;64741;41.730;44.788;2023-12-07T00:57:04;991.4;;;23;44.3
76046;BME280;64741;41.730;44.788;2023-12-07T01:01:56;991.4;;;23;44.1
76046;BME280;64741;41.730;44.788;2023-12-07T01:07:04;991.4;;;22.9;44.2
76046;BME280;64741;41.730;44.788;2023-12-07T01:12:04;991.4;;;22.9;44.3
76046;BME280;64741;41.730;44.788;2023-12-07T01:16:56;991.4;;;22.9;44.2
76046;BME280;64741;41.730;44.788;2023-12-07T01:22:04;991.4;;;22.9;44.2
76046;BME280;64741;41.730;44.788;2023-12-07T01:26:56;991.4;;;22.9;44.2
76046;BME280;64741;41.730;44.788;2023-12-07T01:31:56;991.5;;;22.9;44.3
76046;BME280;64741;41.730;44.788;2023-12-07T01:37:04;991.5;;;22.9;44.2
76046;BME280;64741;41.730;44.788;2023-12-07T01:42:04;991.5;;;22.9;44.2
76046;BME280;64741;41.730;44.788;2023-12-07T01:46:56;991.6;;;22.9;44.1
76046;BME280;64741;41.730;44.788;2023-12-07T01:52:04;991.6;;;22.9;44.1
76046;BME280;64741;41.730;44.788;2023-12-07T01:57:06;991.6;;;22.9;44.1
76046;BME280;64741;41.730;44.788;2023-12-07T02:01:40;991.6;;;22.9;44.1
76046;BME280;64741;41.730;44.788;2023-12-07T02:07:04;991.6;;;22.9;44.1
76046;BME280;64741;41.730;44.788;2023-12-07T02:11:56;991.6;;;22.9;44.1
76046;BME280;64741;41.730;44.788;2023-12-07T02:16:57;991.6;;;22.9;44
76046;BME280;64741;41.730;44.788;2023-12-07T02:22:06;991.6;;;22.9;44
76046;BME280;64741;41.730;44.788;2023-12-07T02:27:00;991.6;;;22.9;44
76046;BME280;64741;41.730;44.788;2023-12-07T02:31:56;991.6;;;22.9;44
76046;BME280;64741;41.730;44.788;2023-12-07T02:37:04;991.6;;;22.9;44
76046;BME280;64741;41.730;44.788;2023-12-07T02:42:04;991.7;;;22.9;44
76046;BME280;64741;41.730;44.788;2023-12-07T02:46:44;991.7;;;22.9;44
76046;BME280;64741;41.730;44.788;2023-12-07T02:52:06;991.7;;;22.9;44
76046;BME280;64741;41.730;44.788;2023-12-07T02:57:06;991.8;;;22.9;43.9
76046;BME280;64741;41.730;44.788;2023-12-07T03:01:44;991.7;;;22.9;43.9
76046;BME280;64741;41.730;44.788;2023-12-07T03:07:04;991.7;;;22.9;43.9
76046;BME280;64741;41.730;44.788;2023-12-07T03:12:04;991.8;;;22.9;43.9
76046;BME280;64741;41.730;44.788;2023-12-07T03:16:38;991.8;;;22.9;43.9
76046;BME280;64741;41.730;44.788;2023-12-07T03:22:04;991.8;;;22.9;43.9
76046;BME280;64741;41.730;44.788;2023-12-07T03:27:04;991.8;;;22.9;43.8
76046;BME280;64741;41.730;44.788;2023-12-07T03:31:56;991.8;;;22.9;43.9
76046;BME280;64741;41.730;44.788;2023-12-07T03:37:04;991.8;;;22.9;43.9
76046;BME280;64741;41.730;44.788;2023-12-07T03:42:04;991.9;;;22.9;43.8
76046;BME280;64741;41.730;44.788;2023-12-07T03:46:56;992;;;22.9;43.8
76046;BME280;64741;41.730;44.788;2023-12-07T03:52:04;991.9;;;22.9;43.8
76046;BME280;64741;41.730;44.788;2023-12-07T03:57:04;991.9;;;22.9;43.8
76046;BME280;64741;41.730;44.788;2023-12-07T04:01:56;991.8;;;22.9;43.8
76046;BME280;64741;41.730;44.788;2023-12-07T04:07:04;991.9;;;22.9;43.7
76046;BME280;64741;41.730;44.788;2023-12-07T04:12:04;992;;;22.9;43.7
76046;BME280;64741;41.730;44.788;2023-12-07T04:16:56;992;;;22.9;43.8
76046;BME280;64741;41.730;44.788;2023-12-07T04:21:16;992;;;22.9;43.8
76046;BME280;64741;41.730;44.788;2023-12-07T04:27:04;991.9;;;22.9;43.7
76046;BME280;64741;41.730;44.788;2023-12-07T04:31:40;991.8;;;22.9;43.7
76046;BME280;64741;41.730;44.788;2023-12-07T04:37:04;991.8;;;22.9;43.8
76046;BME280;64741;41.730;44.788;2023-12-07T04:42:04;991.8;;;22.9;43.7
76046;BME280;64741;41.730;44.788;2023-12-07T04:46:58;991.9;;;22.9;43.7
76046;BME280;64741;41.730;44.788;2023-12-07T04:52:04;991.9;;;22.9;43.7
76046;BME280;64741;41.730;44.788;2023-12-07T04:57:04;991.9;;;22.9;43.7
76046;BME280;64741;41.730;44.788;2023-12-07T05:01:44;992;;;22.9;43.6
76046;BME280;64741;41.730;44.788;2023-12-07T05:07:02;992.1;;;22.9;43.6
76046;BME280;64741;41.730;44.788;2023-12-07T05:12:04;992.1;;;22.9;43.7
76046;BME280;64741;41.730;44.788;2023-12-07T05:16:56;992.2;;;22.9;43.7
76046;BME280;64741;41.730;44.788;2023-12-07T05:21:42;992.2;;;22.9;43.7
76046;BME280;64741;41.730;44.788;2023-12-07T05:27:04;992.2;;;22.9;43.7
76046;BME280;64741;41.730;44.788;2023-12-07T05:31:40;992.1;;;22.9;43.8
76046;BME280;64741;41.730;44.788;2023-12-07T05:37:04;992.1;;;22.9;43.7
76046;BME280;64741;41.730;44.788;2023-12-07T05:41:16;992.2;;;22.9;43.8
76046;BME280;64741;41.730;44.788;2023-12-07T05:46:34;992.1;;;22.9;43.9
76046;BME280;64741;41.730;44.788;2023-12-07T05:52:04;992.2;;;22.9;43.9
76046;BME280;64741;41.730;44.788;2023-12-07T05:57:04;992.3;;;23;44
76046;BME280;64741;41.730;44.788;2023-12-07T06:01:58;992.3;;;23;44
76046;BME280;64741;41.730;44.788;2023-12-07T06:07:06;992.3;;;23;44
76046;BME280;64741;41.730;44.788;2023-12-07T06:11:58;992.3;;;23;44.1
76046;BME280;64741;41.730;44.788;2023-12-07T06:16:58;992.2;;;23;44.3
76046;BME280;64741;41.730;44.788;2023-12-07T06:22:06;992.2;;;23;44.5
76046;BME280;64741;41.730;44.788;2023-12-07T06:26:58;992.1;;;23;44.5
76046;BME280;64741;41.730;44.788;2023-12-07T06:31:58;992.1;;;23.1;44.5
76046;BME280;64741;41.730;44.788;2023-12-07T06:36:48;992.2;;;23.1;44.6
76046;BME280;64741;41.730;44.788;2023-12-07T06:41:58;992.2;;;23.1;44.9
76046;BME280;64741;41.730;44.788;2023-12-07T06:46:58;992.1;;;23.2;46.1
76046;BME280;64741;41.730;44.788;2023-12-07T06:52:06;992.1;;;23.2;47.1
76046;BME280;64741;41.730;44.788;2023-12-07T06:56:58;992.2;;;23.3;47.7
76046;BME280;64741;41.730;44.788;2023-12-07T07:01:16;992.1;;;23.3;48.7
76046;BME280;64741;41.730;44.788;2023-12-07T07:07:06;992.1;;;23.4;49.5
76046;BME280;64741;41.730;44.788;2023-12-07T07:11:58;992.2;;;23.4;50.3
76046;BME280;64741;41.730;44.788;2023-12-07T07:16:56;992.2;;;23.5;50.6
76046;BME280;64741;41.730;44.788;2023-12-07T07:21:40;992.2;;;23.5;49.9
76046;BME280;64741;41.730;44.788;2023-12-07T07:26:58;992.1;;;23.5;49.9
76046;BME280;64741;41.730;44.788;2023-12-07T07:31:58;992.1;;;23.5;49.3
76046;BME280;64741;41.730;44.788;2023-12-07T07:37:05;992.1;;;23.6;48.8
76046;BME280;64741;41.730;44.788;2023-12-07T07:41:56;992;;;23.6;48.5
76046;BME280;64741;41.730;44.788;2023-12-07T07:46:58;991.9;;;23.6;48.1
76046;BME280;64741;41.730;44.788;2023-12-07T07:52:06;991.8;;;23.6;47.8
76046;BME280;64741;41.730;44.788;2023-12-07T07:56:50;991.8;;;23.6;47.6
76046;BME280;64741;41.730;44.788;2023-12-07T08:01:58;991.7;;;23.6;47.4
76046;BME280;64741;41.730;44.788;2023-12-07T08:07:08;991.6;;;23.6;47.2
76046;BME280;64741;41.730;44.788;2023-12-07T08:11:58;991.5;;;23.6;47
76046;BME280;64741;41.730;44.788;2023-12-07T08:16:58;991.4;;;23.6;46.9
76046;BME280;64741;41.730;44.788;2023-12-07T08:22:06;991.3;;;23.6;47
76046;BME280;64741;41.730;44.788;2023-12-07T08:26:52;991.3;;;23.6;47
76046;BME280;64741;41.730;44.788;2023-12-07T08:31:58;991.3;;;23.6;47
76046;BME280;64741;41.730;44.788;2023-12-07T08:37:06;991.2;;;23.6;46.9
76046;BME280;64741;41.730;44.788;2023-12-07T08:41:56;991.2;;;23.6;46.9
76046;BME280;64741;41.730;44.788;2023-12-07T08:46:54;991.1;;;23.7;47
76046;BME280;64741;41.730;44.788;2023-12-07T08:52:06;991;;;23.7;47
76046;BME280;64741;41.730;44.788;2023-12-07T08:56:46;990.9;;;23.7;46.9
76046;BME280;64741;41.730;44.788;2023-12-07T09:01:50;990.9;;;23.7;46.8
76046;BME280;64741;41.730;44.788;2023-12-07T09:07:08;990.8;;;23.7;46.7
76046;BME280;64741;41.730;44.788;2023-12-07T09:11:56;990.7;;;23.7;46.6
76046;BME280;64741;41.730;44.788;2023-12-07T09:16:58;990.6;;;23.7;46.6
76046;BME280;64741;41.730;44.788;2023-12-07T09:21:52;990.6;;;23.7;46.6
76046;BME280;64741;41.730;44.788;2023-12-07T09:26:58;990.6;;;23.8;46.5
76046;BME280;64741;41.730;44.788;2023-12-07T09:31:46;990.5;;;23.8;46.2
76046;BME280;64741;41.730;44.788;2023-12-07T09:37:04;990.4;;;23.8;46.2
76046;BME280;64741;41.730;44.788;2023-12-07T09:41:56;990.4;;;23.8;46.3
76046;BME280;64741;41.730;44.788;2023-12-07T09:46:56;990.4;;;23.8;46.1
76046;BME280;64741;41.730;44.788;2023-12-07T09:52:06;990.4;;;23.8;45.9
76046;BME280;64741;41.730;44.788;2023-12-07T09:56:58;990.3;;;23.8;46.1
76046;BME280;64741;41.730;44.788;2023-12-07T10:02:00;990.3;;;23.8;45.8
76046;BME280;64741;41.730;44.788;2023-12-07T10:06:55;990.3;;;23.8;45.6
76046;BME280;64741;41.730;44.788;2023-12-07T10:12:01;990.2;;;23.8;45.5
76046;BME280;64741;41.730;44.788;2023-12-07T10:16:59;990.2;;;23.8;45.5
76046;BME280;64741;41.730;44.788;2023-12-07T10:22:00;990.2;;;23.8;45.3
76046;BME280;64741;41.730;44.788;2023-12-07T10:26:58;990.1;;;23.7;45.3
76046;BME280;64741;41.730;44.788;2023-12-07T10:31:59;990.1;;;23.6;45.4
76046;BME280;64741;41.730;44.788;2023-12-07T10:37:00;990;;;23.5;45.3
76046;BME280;64741;41.730;44.788;2023-12-07T10:41:59;990;;;23.5;45.2
76046;BME280;64741;41.730;44.788;2023-12-07T10:46:56;990;;;23.5;44.6
76046;BME280;64741;41.730;44.788;2023-12-07T10:51:59;990;;;23.6;44.1
76046;BME280;64741;41.730;44.788;2023-12-07T10:56:56;990;;;23.5;43.9
76046;BME280;64741;41.730;44.788;2023-12-07T11:01:46;989.9;;;23.6;44
76046;BME280;64741;41.730;44.788;2023-12-07T11:07:03;989.9;;;23.5;43.9
76046;BME280;64741;41.730;44.788;2023-12-07T11:11:52;989.9;;;23.5;44
76046;BME280;64741;41.730;44.788;2023-12-07T11:16:56;989.9;;;23.5;44.1
76046;BME280;64741;41.730;44.788;2023-12-07T11:21:52;990;;;23.5;44.2
76046;BME280;64741;41.730;44.788;2023-12-07T11:26:56;990;;;23.5;44.2
76046;BME280;64741;41.730;44.788;2023-12-07T11:31:56;990;;;23.5;44.2
76046;BME280;64741;41.730;44.788;2023-12-07T11:37:01;990;;;23.5;44.2
76046;BME280;64741;41.730;44.788;2023-12-07T11:41:58;990;;;23.5;44.3
76046;BME280;64741;41.730;44.788;2023-12-07T11:46:56;990;;;23.5;44.3
76046;BME280;64741;41.730;44.788;2023-12-07T11:52:00;990;;;23.4;44.4
76046;BME280;64741;41.730;44.788;2023-12-07T11:56:58;990;;;23.4;44.4
76046;BME280;64741;41.730;44.788;2023-12-07T12:01:58;990;;;23.4;44.4
76046;BME280;64741;41.730;44.788;2023-12-07T12:07:00;990.1;;;23.4;44.5
76046;BME280;64741;41.730;44.788;2023-12-07T12:11:58;990.2;;;23.4;44.5
76046;BME280;64741;41.730;44.788;2023-12-07T12:16:58;990.2;;;23.4;44.6
76046;BME280;64741;41.730;44.788;2023-12-07T12:22:00;990.2;;;23.4;44.7
76046;BME280;64741;41.730;44.788;2023-12-07T12:26:52;990.2;;;23.4;44.6
76046;BME280;64741;41.730;44.788;2023-12-07T12:31:58;990.3;;;23.4;44.8
76046;BME280;64741;41.730;44.788;2023-12-07T12:37:00;990.3;;;23.4;44.8
76046;BME280;64741;41.730;44.788;2023-12-07T12:41:40;990.3;;;23.4;44.8
76046;BME280;64741;41.730;44.788;2023-12-07T12:46:58;990.3;;;23.4;44.7
76046;BME280;64741;41.730;44.788;2023-12-07T12:52:00;990.3;;;23.4;44.8
76046;BME280;64741;41.730;44.788;2023-12-07T12:56:58;990.5;;;23.3;44.8
76046;BME280;64741;41.730;44.788;2023-12-07T13:01:58;990.5;;;23.3;44.7
76046;BME280;64741;41.730;44.788;2023-12-07T13:06:58;990.5;;;23.3;44.9
76046;BME280;64741;41.730;44.788;2023-12-07T13:11:58;990.6;;;23.3;45
76046;BME280;64741;41.730;44.788;2023-12-07T13:16:50;990.7;;;23.3;45.1
76046;BME280;64741;41.730;44.788;2023-12-07T13:21:58;990.7;;;23.3;45.2
76046;BME280;64741;41.730;44.788;2023-12-07T13:26:46;990.7;;;23.3;45.2
76046;BME280;64741;41.730;44.788;2023-12-07T13:31:58;990.7;;;23.3;45.3
76046;BME280;64741;41.730;44.788;2023-12-07T13:36:58;990.8;;;23.3;45.3
76046;BME280;64741;41.730;44.788;2023-12-07T13:41:56;990.8;;;23.3;45.4
76046;BME280;64741;41.730;44.788;2023-12-07T13:46:46;990.8;;;23.3;45.5
76046;BME280;64741;41.730;44.788;2023-12-07T13:52:00;990.9;;;23.3;45.5
76046;BME280;64741;41.730;44.788;2023-12-07T13:56:58;991;;;23.3;45.4
76046;BME280;64741;41.730;44.788;2023-12-07T14:01:58;991;;;23.3;45.4
76046;BME280;64741;41.730;44.788;2023-12-07T14:07:06;991.1;;;23.3;45.3
76046;BME280;64741;41.730;44.788;2023-12-07T14:11:16;991.2;;;23.3;45.2
76046;BME280;64741;41.730;44.788;2023-12-07T14:16:58;991.3;;;23.3;45.1
76046;BME280;64741;41.730;44.788;2023-12-07T14:21:58;991.4;;;23.2;45.1
76046;BME280;64741;41.730;44.788;2023-12-07T14:26:58;991.5;;;23.2;45
76046;BME280;64741;41.730;44.788;2023-12-07T14:31:32;991.6;;;23.2;44.9
76046;BME280;64741;41.730;44.788;2023-12-07T14:37:04;991.7;;;23.2;44.8
76046;BME280;64741;41.730;44.788;2023-12-07T14:41:54;991.8;;;23.2;44.7
76046;BME280;64741;41.730;44.788;2023-12-07T14:47:00;991.8;;;23.2;44.8
76046;BME280;64741;41.730;44.788;2023-12-07T14:52:04;991.9;;;23.2;44.6
76046;BME280;64741;41.730;44.788;2023-12-07T14:56:52;991.9;;;23.2;44.4
76046;BME280;64741;41.730;44.788;2023-12-07T15:01:58;991.9;;;23.2;44.4
76046;BME280;64741;41.730;44.788;2023-12-07T15:07:06;991.9;;;23.2;44.4
76046;BME280;64741;41.730;44.788;2023-12-07T15:12:04;992;;;23.2;44.4
76046;BME280;64741;41.730;44.788;2023-12-07T15:16:58;992.1;;;23.2;44.4
76046;BME280;64741;41.730;44.788;2023-12-07T15:22:04;992.1;;;23.2;44.4
76046;BME280;64741;41.730;44.788;2023-12-07T15:27:04;992.1;;;23.2;44.4
76046;BME280;64741;41.730;44.788;2023-12-07T15:32:00;992.1;;;23.2;44.4
76046;BME280;64741;41.730;44.788;2023-12-07T15:37:06;992.1;;;23.2;44.4
76046;BME280;64741;41.730;44.788;2023-12-07T15:42:07;992.1;;;23.2;44.3
76046;BME280;64741;41.730;44.788;2023-12-07T15:47:00;992.2;;;23.3;44.2
76046;BME280;64741;41.730;44.788;2023-12-07T15:52:08;992.2;;;23.3;44.2
76046;BME280;64741;41.730;44.788;2023-12-07T15:57:06;992.3;;;23.3;44.2
76046;BME280;64741;41.730;44.788;2023-12-07T16:02:00;992.3;;;23.2;44.4
76046;BME280;64741;41.730;44.788;2023-12-07T16:07:08;992.4;;;23.2;44.5
76046;BME280;64741;41.730;44.788;2023-12-07T16:11:56;992.4;;;23.1;44.5
76046;BME280;64741;41.730;44.788;2023-12-07T16:17:02;992.5;;;23.1;44.5
76046;BME280;64741;41.730;44.788;2023-12-07T16:22:06;992.5;;;23.1;44.5
76046;BME280;64741;41.730;44.788;2023-12-07T16:26:38;992.5;;;23;44.5
76046;BME280;64741;41.730;44.788;2023-12-07T16:32:02;992.6;;;23;44.5
76046;BME280;64741;41.730;44.788;2023-12-07T16:37:08;992.6;;;23;44.5
76046;BME280;64741;41.730;44.788;2023-12-07T16:42:06;992.7;;;23;44.5
76046;BME280;64741;41.730;44.788;2023-12-07T16:46:58;992.7;;;23;44.6
76046;BME280;64741;41.730;44.788;2023-12-07T16:52:02;992.7;;;23;44.8
76046;BME280;64741;41.730;44.788;2023-12-07T16:57:04;992.8;;;23;45
76046;BME280;64741;41.730;44.788;2023-12-07T17:02:02;992.8;;;23;45.1
76046;BME280;64741;41.730;44.788;2023-12-07T17:06:50;992.9;;;23;45
76046;BME280;64741;41.730;44.788;2023-12-07T17:11:52;992.9;;;23;45
76046;BME280;64741;41.730;44.788;2023-12-07T17:17:02;992.9;;;23;45.2
76046;BME280;64741;41.730;44.788;2023-12-07T17:22:06;993;;;23;45.4
76046;BME280;64741;41.730;44.788;2023-12-07T17:27:08;993.1;;;23;45.5
76046;BME280;64741;41.730;44.788;2023-12-07T17:32:02;993.2;;;23;45.5
76046;BME280;64741;41.730;44.788;2023-12-07T17:37:07;993.2;;;23;45.4
76046;BME280;64741;41.730;44.788;2023-12-07T17:41:52;993.3;;;23;45.4
76046;BME280;64741;41.730;44.788;2023-12-07T17:47:00;993.4;;;23;45.2
76046;BME280;64741;41.730;44.788;2023-12-07T17:52:08;993.4;;;23;45.2
76046;BME280;64741;41.730;44.788;2023-12-07T17:57:00;993.4;;;23;45.1
76046;BME280;64741;41.730;44.788;2023-12-07T18:02:02;993.5;;;23;45.1
76046;BME280;64741;41.730;44.788;2023-12-07T18:07:08;993.6;;;23;45.2
76046;BME280;64741;41.730;44.788;2023-12-07T18:12:06;993.6;;;23;45.2
76046;BME280;64741;41.730;44.788;2023-12-07T18:17:02;993.7;;;23;45.1
76046;BME280;64741;41.730;44.788;2023-12-07T18:22:06;993.7;;;23;45.1
76046;BME280;64741;41.730;44.788;2023-12-07T18:27:06;993.8;;;23;45
76046;BME280;64741;41.730;44.788;2023-12-07T18:32:00;993.8;;;23;45
76046;BME280;64741;41.730;44.788;2023-12-07T18:37:08;993.8;;;23;44.9
76046;BME280;64741;41.730;44.788;2023-12-07T18:42:08;993.7;;;22.9;44.9
76046;BME280;64741;41.730;44.788;2023-12-07T18:47:00;993.7;;;22.9;44.9
76046;BME280;64741;41.730;44.788;2023-12-07T18:52:08;993.7;;;22.9;44.9
76046;BME280;64741;41.730;44.788;2023-12-07T18:57:06;993.6;;;22.9;44.9
76046;BME280;64741;41.730;44.788;2023-12-07T19:02:00;993.6;;;23;44.8
76046;BME280;64741;41.730;44.788;2023-12-07T19:07:08;993.6;;;23.1;45
76046;BME280;64741;41.730;44.788;2023-12-07T19:12:08;993.7;;;23.1;45.1
76046;BME280;64741;41.730;44.788;2023-12-07T19:17:00;993.6;;;23.2;45
76046;BME280;64741;41.730;44.788;2023-12-07T19:22:06;993.6;;;23.2;44.9
76046;BME280;64741;41.730;44.788;2023-12-07T19:26:24;993.6;;;23.2;45
76046;BME280;64741;41.730;44.788;2023-12-07T19:32:02;993.6;;;23.2;45
76046;BME280;64741;41.730;44.788;2023-12-07T19:37:06;993.6;;;23.2;44.9
76046;BME280;64741;41.730;44.788;2023-12-07T19:42:06;993.6;;;23.3;44.9
76046;BME280;64741;41.730;44.788;2023-12-07T19:47:00;993.6;;;23.3;44.9
76046;BME280;64741;41.730;44.788;2023-12-07T19:52:08;993.7;;;23.3;44.8
76046;BME280;64741;41.730;44.788;2023-12-07T19:56:48;993.8;;;23.3;44.7
76046;BME280;64741;41.730;44.788;2023-12-07T20:02:00;994;;;23.4;44.7
76046;BME280;64741;41.730;44.788;2023-12-07T20:07:06;994;;;23.4;44.7
76046;BME280;64741;41.730;44.788;2023-12-07T20:12:08;994.1;;;23.4;44.7
76046;BME280;64741;41.730;44.788;2023-12-07T20:17:00;994.3;;;23.4;44.5
76046;BME280;64741;41.730;44.788;2023-12-07T20:22:06;994.3;;;23.4;44.5
76046;BME280;64741;41.730;44.788;2023-12-07T20:27:06;994.2;;;23.4;44.5
76046;BME280;64741;41.730;44.788;2023-12-07T20:32:02;994.2;;;23.4;44.4
76046;BME280;64741;41.730;44.788;2023-12-07T20:36:56;994.2;;;23.4;44.4
76046;BME280;64741;41.730;44.788;2023-12-07T20:42:06;994.3;;;23.4;44.4
76046;BME280;64741;41.730;44.788;2023-12-07T20:47:00;994.4;;;23.4;44.4
76046;BME280;64741;41.730;44.788;2023-12-07T20:52:06;994.6;;;23.4;44.4
76046;BME280;64741;41.730;44.788;2023-12-07T20:57:06;994.6;;;23.4;44.4
76046;BME280;64741;41.730;44.788;2023-12-07T21:02:02;994.7;;;23.4;44.3
76046;BME280;64741;41.730;44.788;2023-12-07T21:07:08;994.7;;;23.4;44.3
76046;BME280;64741;41.730;44.788;2023-12-07T21:11:22;994.7;;;23.4;44.3
76046;BME280;64741;41.730;44.788;2023-12-07T21:17:00;994.8;;;23.4;44.3
76046;BME280;64741;41.730;44.788;2023-12-07T21:22:06;994.8;;;23.4;44.3
76046;BME280;64741;41.730;44.788;2023-12-07T21:27:08;994.8;;;23.4;44.3
76046;BME280;64741;41.730;44.788;2023-12-07T21:31:42;994.9;;;23.4;44.2
76046;BME280;64741;41.730;44.788;2023-12-07T21:37:08;994.9;;;23.4;44.1
76046;BME280;64741;41.730;44.788;2023-12-07T21:42:06;995;;;23.5;44
76046;BME280;64741;41.730;44.788;2023-12-07T21:46:30;995.1;;;23.5;44.1
76046;BME280;64741;41.730;44.788;2023-12-07T21:52:06;995.2;;;23.5;44.1
76046;BME280;64741;41.730;44.788;2023-12-07T21:57:06;995.2;;;23.5;44.1
76046;BME280;64741;41.730;44.788;2023-12-07T22:02:02;995.3;;;23.5;44.1
76046;BME280;64741;41.730;44.788;2023-12-07T22:07:08;995.4;;;23.4;44.2
76046;BME280;64741;41.730;44.788;2023-12-07T22:12:06;995.5;;;23.4;44
76046;BME280;64741;41.730;44.788;2023-12-07T22:17:00;995.5;;;23.4;44.1
76046;BME280;64741;41.730;44.788;2023-12-07T22:22:06;995.5;;;23.4;44
76046;BME280;64741;41.730;44.788;2023-12-07T22:27:06;995.5;;;23.3;44
76046;BME280;64741;41.730;44.788;2023-12-07T22:32:00;995.6;;;23.3;44
76046;BME280;64741;41.730;44.788;2023-12-07T22:36:29;995.5;;;23.3;44
76046;BME280;64741;41.730;44.788;2023-12-07T22:42:06;995.6;;;23.3;43.9
76046;BME280;64741;41.730;44.788;2023-12-07T22:47:00;995.6;;;23.3;44
76046;BME280;64741;41.730;44.788;2023-12-07T22:52:08;995.7;;;23.3;43.9
76046;BME280;64741;41.730;44.788;2023-12-07T22:57:08;995.8;;;23.3;43.9
76046;BME280;64741;41.730;44.788;2023-12-07T23:01:28;995.9;;;23.3;44
76046;BME280;64741;41.730;44.788;2023-12-07T23:07:06;996;;;23.3;43.9
76046;BME280;64741;41.730;44.788;2023-12-07T23:11:52;996;;;23.3;43.8
76046;BME280;64741;41.730;44.788;2023-12-07T23:16:59;996.1;;;23.2;43.8
76046;BME280;64741;41.730;44.788;2023-12-07T23:21:22;996.1;;;23.2;43.9
76046;BME280;64741;41.730;44.788;2023-12-07T23:27:06;996.2;;;23.3;43.8
76046;BME280;64741;41.730;44.788;2023-12-07T23:31:58;996.3;;;23.2;43.8
76046;BME280;64741;41.730;44.788;2023-12-07T23:37:06;996.3;;;23.2;43.7
76046;BME280;64741;41.730;44.788;2023-12-07T23:42:07;996.3;;;23.2;43.7
76046;BME280;64741;41.730;44.788;2023-12-07T23:46:58;996.3;;;23.2;43.8
76046;BME280;64741;41.730;44.788;2023-12-07T23:51:46;996.4;;;23.2;43.7
76046;BME280;64741;41.730;44.788;2023-12-07T23:57:06;996.4;;;23.2;43.7
